createdAt,value
2023-05-05T00:02:30.383Z,100830.66
2023-05-05T00:05:15.651Z,100831.94
2023-05-05T00:08:00.526Z,100826.56
2023-05-05T00:10:47.068Z,100828.13
2023-05-05T00:13:31.775Z,100832.56
2023-05-05T00:16:17.436Z,100835.03
2023-05-05T00:19:02.541Z,100834.78
2023-05-05T00:21:47.680Z,100828.44
2023-05-05T00:24:32.517Z,100836.44
2023-05-05T00:27:17.660Z,100833.16
2023-05-05T00:30:02.460Z,100826.34
2023-05-05T00:32:48.602Z,100823.31
2023-05-05T00:35:34.111Z,100825.78
2023-05-05T00:38:19.159Z,100829.91
2023-05-05T00:41:04.128Z,100832.78
2023-05-05T00:43:49.128Z,100833.50
2023-05-05T00:46:34.785Z,100836.38
2023-05-05T00:49:19.810Z,100836.00
2023-05-05T00:52:06.475Z,100841.78
2023-05-05T00:54:51.860Z,100833.88
2023-05-05T00:57:37.002Z,100832.41
2023-05-05T01:00:22.784Z,100837.50
2023-05-05T01:03:08.152Z,100837.69
2023-05-05T01:06:26.729Z,100837.75
2023-05-05T01:09:26.058Z,100840.31
2023-05-05T01:12:31.817Z,100840.22
2023-05-05T01:15:41.541Z,100844.72
2023-05-05T01:18:41.813Z,100840.94
2023-05-05T01:21:43.044Z,100844.94
2023-05-05T01:25:05.762Z,100848.88
2023-05-05T01:28:09.594Z,100846.75
2023-05-05T01:31:27.040Z,100850.19
2023-05-05T01:34:16.521Z,100845.22
2023-05-05T01:37:11.260Z,100843.91
2023-05-05T01:40:01.616Z,100842.78
2023-05-05T01:42:48.379Z,100847.34
2023-05-05T01:45:37.851Z,100854.00
2023-05-05T01:48:24.291Z,100858.19
2023-05-05T01:51:10.306Z,100864.88
2023-05-05T01:53:59.076Z,100873.72
2023-05-05T01:56:46.078Z,100869.56
2023-05-05T01:59:33.485Z,100876.38
2023-05-05T02:02:20.682Z,100880.50
2023-05-05T02:05:06.739Z,100883.91
2023-05-05T02:07:54.898Z,100888.25
2023-05-05T02:10:40.772Z,100882.91
2023-05-05T02:13:28.554Z,100884.09
2023-05-05T02:16:13.896Z,100884.44
2023-05-05T02:19:04.894Z,100890.91
2023-05-05T02:21:49.845Z,100884.91
2023-05-05T02:24:35.556Z,100890.22
2023-05-05T02:27:22.859Z,100883.06
2023-05-05T02:30:11.053Z,100892.19
2023-05-05T02:33:05.611Z,100898.00
2023-05-05T02:35:53.199Z,100898.88
2023-05-05T02:38:42.799Z,100903.72
2023-05-05T02:41:30.143Z,100904.56
2023-05-05T02:44:16.705Z,100918.19
2023-05-05T02:47:03.847Z,100912.03
2023-05-05T02:49:48.925Z,100923.69
2023-05-05T02:52:34.982Z,100924.41
2023-05-05T02:55:20.284Z,100919.22
2023-05-05T02:58:07.571Z,100921.38
2023-05-05T03:01:01.497Z,100918.84
2023-05-05T03:03:59.350Z,100923.53
2023-05-05T03:06:48.930Z,100926.00
2023-05-05T03:09:39.741Z,100937.16
2023-05-05T03:12:30.389Z,100923.53
2023-05-05T03:15:15.891Z,100932.84
2023-05-05T03:18:03.059Z,100925.53
2023-05-05T03:20:48.533Z,100929.19
2023-05-05T03:23:35.477Z,100932.97
2023-05-05T03:26:20.576Z,100938.50
2023-05-05T03:29:06.736Z,100935.38
2023-05-05T03:31:51.497Z,100935.69
2023-05-05T03:34:37.603Z,100937.53
2023-05-05T03:37:22.474Z,100944.03
2023-05-05T03:40:08.204Z,100937.56
2023-05-05T03:42:53.596Z,100942.38
2023-05-05T03:45:38.624Z,100944.06
2023-05-05T03:48:23.403Z,100947.72
2023-05-05T03:51:08.766Z,100950.53
2023-05-05T03:53:53.622Z,100947.38
2023-05-05T03:56:38.372Z,100953.72
2023-05-05T03:59:23.556Z,100953.84
2023-05-05T04:02:08.543Z,100948.53
2023-05-05T04:04:53.739Z,100958.00
2023-05-05T04:07:38.600Z,100955.03
2023-05-05T04:10:23.845Z,100965.47
2023-05-05T04:13:08.733Z,100971.81
2023-05-05T04:15:53.822Z,100975.97
2023-05-05T04:18:38.637Z,100981.09
2023-05-05T04:21:23.725Z,100990.09
2023-05-05T04:24:08.552Z,100985.09
2023-05-05T04:26:53.870Z,100985.25
2023-05-05T04:29:38.826Z,100987.22
2023-05-05T04:32:24.052Z,100988.38
2023-05-05T04:35:09.097Z,100989.41
2023-05-05T04:37:54.756Z,100991.72
2023-05-05T04:40:41.148Z,100995.19
2023-05-05T04:43:26.009Z,100994.84
2023-05-05T04:46:10.902Z,100998.16
2023-05-05T04:48:56.041Z,100989.84
2023-05-05T04:51:42.244Z,100994.47
2023-05-05T04:54:27.196Z,100997.78
2023-05-05T04:57:11.911Z,100996.13
2023-05-05T04:59:57.110Z,100999.75
2023-05-05T05:02:42.385Z,101004.91
2023-05-05T05:05:27.572Z,101001.06
2023-05-05T05:08:12.528Z,101010.84
2023-05-05T05:10:58.486Z,101011.47
2023-05-05T05:13:43.369Z,101005.75
2023-05-05T05:16:28.550Z,101005.72
2023-05-05T05:19:13.809Z,101009.34
2023-05-05T05:21:58.929Z,101004.44
2023-05-05T05:24:43.983Z,101002.00
2023-05-05T05:27:29.055Z,101007.41
2023-05-05T05:30:14.442Z,101009.69
2023-05-05T05:32:59.420Z,101008.97
2023-05-05T05:35:44.264Z,101007.00
2023-05-05T05:38:28.988Z,101002.34
2023-05-05T05:41:13.909Z,101006.50
2023-05-05T05:43:58.941Z,101000.16
2023-05-05T05:46:44.091Z,101001.00
2023-05-05T05:49:29.186Z,101002.50
2023-05-05T05:52:13.880Z,100997.75
2023-05-05T05:54:58.943Z,100991.31
2023-05-05T05:57:43.781Z,100989.09
2023-05-05T06:00:28.947Z,100999.66
2023-05-05T06:03:14.282Z,100991.63
2023-05-05T06:05:59.789Z,100994.97
2023-05-05T06:08:44.804Z,100993.97
2023-05-05T06:11:30.074Z,101002.09
2023-05-05T06:14:14.955Z,101007.91
2023-05-05T06:17:00.135Z,101004.91
2023-05-05T06:19:45.066Z,101017.41
2023-05-05T06:22:30.238Z,101011.56
2023-05-05T06:25:15.036Z,101012.34
2023-05-05T06:28:00.222Z,101013.03
2023-05-05T06:30:45.603Z,101015.19
2023-05-05T06:33:30.397Z,101012.38
2023-05-05T06:36:15.160Z,101010.00
2023-05-05T06:39:00.404Z,101011.06
2023-05-05T06:41:45.407Z,101001.41
2023-05-05T06:44:31.087Z,100999.00
2023-05-05T06:47:16.022Z,101003.16
2023-05-05T06:50:00.920Z,101005.75
2023-05-05T06:52:46.058Z,101005.94
2023-05-05T06:55:31.468Z,101005.09
2023-05-05T06:58:16.280Z,101013.19
2023-05-05T07:01:01.564Z,101016.41
2023-05-05T07:03:46.474Z,101020.78
2023-05-05T07:06:31.998Z,101021.81
2023-05-05T07:09:17.526Z,101022.63
2023-05-05T07:12:03.551Z,101027.22
2023-05-05T07:14:48.364Z,101022.44
2023-05-05T07:17:33.248Z,101018.41
2023-05-05T07:20:18.110Z,101031.38
2023-05-05T07:23:03.094Z,101024.06
2023-05-05T07:25:48.659Z,101030.63
2023-05-05T07:28:34.612Z,101030.22
2023-05-05T07:31:19.764Z,101035.84
2023-05-05T07:34:04.954Z,101027.44
2023-05-05T07:36:50.199Z,101021.00
2023-05-05T07:39:35.032Z,101025.38
2023-05-05T07:42:21.001Z,101028.63
2023-05-05T07:45:06.906Z,101027.38
2023-05-05T07:47:51.931Z,101029.06
2023-05-05T07:50:36.967Z,101030.06
2023-05-05T07:53:22.012Z,101019.94
2023-05-05T07:56:08.623Z,101020.50
2023-05-05T07:58:53.799Z,101019.66
2023-05-05T08:01:39.681Z,101022.06
2023-05-05T08:04:24.603Z,101029.09
2023-05-05T08:07:10.469Z,101019.84
2023-05-05T08:09:55.240Z,101021.81
2023-05-05T08:12:40.365Z,101024.38
2023-05-05T08:15:25.676Z,101016.44
2023-05-05T08:18:10.673Z,101017.59
2023-05-05T08:20:56.000Z,101022.59
2023-05-05T08:23:40.902Z,101020.19
2023-05-05T08:26:26.081Z,101024.78
2023-05-05T08:29:11.457Z,101016.03
2023-05-05T08:31:56.453Z,101011.31
2023-05-05T08:34:41.370Z,101010.03
2023-05-05T08:37:26.342Z,101007.75
2023-05-05T08:40:15.945Z,101011.06
2023-05-05T08:43:01.355Z,101004.28
2023-05-05T08:45:46.973Z,101012.78
2023-05-05T08:48:33.563Z,101008.59
2023-05-05T08:51:20.153Z,101008.03
2023-05-05T08:54:06.824Z,101006.00
2023-05-05T08:56:52.596Z,101017.50
2023-05-05T08:59:38.159Z,101011.09
2023-05-05T09:02:28.323Z,101017.72
2023-05-05T09:05:13.906Z,101017.59
2023-05-05T09:07:58.945Z,101019.59
2023-05-05T09:10:44.535Z,101024.78
2023-05-05T09:13:32.770Z,101020.03
2023-05-05T09:16:17.499Z,101015.19
2023-05-05T09:19:05.851Z,101019.56
2023-05-05T09:21:51.029Z,101012.44
2023-05-05T09:24:36.082Z,101009.94
2023-05-05T09:27:22.872Z,101007.69
2023-05-05T09:30:09.971Z,101002.75
2023-05-05T09:32:55.478Z,100999.91
2023-05-05T09:35:54.479Z,101003.84
2023-05-05T09:38:39.200Z,100996.97
2023-05-05T09:41:41.446Z,100993.66
2023-05-05T09:44:37.251Z,100994.22
2023-05-05T09:47:34.849Z,100996.44
2023-05-05T09:50:20.315Z,100993.16
2023-05-05T09:53:05.094Z,100995.44
2023-05-05T09:56:00.489Z,100997.28
2023-05-05T09:58:45.919Z,100994.00
2023-05-05T10:01:31.036Z,100993.13
2023-05-05T10:04:30.153Z,100982.72
2023-05-05T10:07:24.813Z,100980.81
2023-05-05T10:10:12.260Z,100973.16
2023-05-05T10:12:58.469Z,100973.78
2023-05-05T10:15:45.597Z,100969.69
2023-05-05T10:18:32.423Z,100969.16
2023-05-05T10:21:20.496Z,100965.53
2023-05-05T10:24:17.445Z,100961.84
2023-05-05T10:27:19.530Z,100948.88
2023-05-05T10:30:06.733Z,100942.09
2023-05-05T10:33:07.872Z,100936.09
2023-05-05T10:36:01.445Z,100941.38
2023-05-05T10:38:46.513Z,100942.63
2023-05-05T10:41:33.204Z,100953.41
2023-05-05T10:44:19.248Z,100950.03
2023-05-05T10:47:05.757Z,100945.72
2023-05-05T10:50:03.861Z,100936.75
2023-05-05T10:52:58.247Z,100935.38
2023-05-05T10:56:00.397Z,100939.66
2023-05-05T10:58:59.165Z,100936.41
2023-05-05T11:01:45.815Z,100926.38
2023-05-05T11:04:31.058Z,100932.16
2023-05-05T11:07:21.214Z,100959.94
2023-05-05T11:10:08.055Z,100983.38
2023-05-05T11:13:02.832Z,100995.19
2023-05-05T11:15:49.285Z,101019.56
2023-05-05T11:18:44.173Z,101013.41
2023-05-05T11:21:29.183Z,101063.09
2023-05-05T11:24:33.241Z,101109.19
2023-05-05T11:27:18.625Z,101125.97
2023-05-05T11:30:03.580Z,101138.47
2023-05-05T11:33:30.953Z,101135.25
2023-05-05T11:36:17.701Z,101122.09
2023-05-05T11:39:22.838Z,101121.38
2023-05-05T11:42:23.192Z,101122.09
2023-05-05T11:45:22.990Z,101104.50
2023-05-05T11:48:26.988Z,101112.03
2023-05-05T11:51:13.634Z,101103.75
2023-05-05T11:53:59.314Z,101117.81
2023-05-05T11:56:55.173Z,101116.91
2023-05-05T12:00:08.966Z,101101.56
2023-05-05T12:02:57.406Z,101072.41
2023-05-05T12:05:42.760Z,101083.63
2023-05-05T12:08:28.422Z,101060.31
2023-05-05T12:11:13.305Z,101057.63
2023-05-05T12:14:11.426Z,101062.47
2023-05-05T12:17:05.625Z,101049.88
2023-05-05T12:19:53.480Z,101060.06
2023-05-05T12:22:39.525Z,101040.97
2023-05-05T12:25:24.633Z,101050.78
2023-05-05T12:28:09.741Z,101045.75
2023-05-05T12:30:58.731Z,101031.06
2023-05-05T12:33:44.183Z,101024.28
2023-05-05T12:36:30.687Z,101023.91
2023-05-05T12:39:16.105Z,101028.41
2023-05-05T12:42:05.199Z,101017.81
2023-05-05T12:44:50.131Z,101027.78
2023-05-05T12:47:36.696Z,101043.06
2023-05-05T12:50:34.009Z,101002.19
2023-05-05T12:53:26.136Z,100992.44
2023-05-05T12:56:34.700Z,101042.91
2023-05-05T12:59:22.218Z,101029.22
2023-05-05T13:02:08.196Z,101013.94
2023-05-05T13:04:54.003Z,100999.53
2023-05-05T13:07:52.233Z,101002.88
2023-05-05T13:10:37.554Z,101008.91
2023-05-05T13:13:22.498Z,101015.38
2023-05-05T13:16:07.785Z,101025.91
2023-05-05T13:18:53.522Z,101006.91
2023-05-05T13:21:38.618Z,101031.75
2023-05-05T13:24:38.180Z,101006.97
2023-05-05T13:27:29.830Z,100993.50
2023-05-05T13:30:14.866Z,100993.28
2023-05-05T13:33:00.023Z,100991.78
2023-05-05T13:35:45.215Z,100993.94
2023-05-05T13:38:32.899Z,100988.16
2023-05-05T13:41:18.463Z,100984.44
2023-05-05T13:44:03.648Z,100981.94
2023-05-05T13:46:48.920Z,100983.94
2023-05-05T13:49:34.985Z,100982.88
2023-05-05T13:52:20.115Z,101011.41
2023-05-05T13:55:05.837Z,101014.50
2023-05-05T13:57:51.522Z,101003.16
2023-05-05T14:00:37.725Z,101009.59
2023-05-05T14:03:23.706Z,100996.13
2023-05-05T14:06:09.068Z,100986.38
2023-05-05T14:08:54.039Z,101001.91
2023-05-05T14:11:38.909Z,101000.94
2023-05-05T14:14:23.808Z,100986.66
2023-05-05T14:17:09.086Z,100988.31
2023-05-05T14:19:53.793Z,100990.31
2023-05-05T14:22:38.661Z,100994.66
2023-05-05T14:25:23.686Z,100991.78
2023-05-05T14:28:08.627Z,100976.84
2023-05-05T14:30:53.714Z,100975.47
2023-05-05T14:33:38.556Z,100970.72
2023-05-05T14:36:23.727Z,100972.75
2023-05-05T14:39:08.796Z,100988.53
2023-05-05T14:41:53.502Z,100969.72
2023-05-05T14:44:38.322Z,100970.97
2023-05-05T14:47:24.369Z,100976.94
2023-05-05T14:50:10.091Z,100964.97
2023-05-05T14:52:55.339Z,100991.81
2023-05-05T14:55:40.178Z,100986.38
2023-05-05T14:58:25.247Z,100989.84
2023-05-05T15:01:10.070Z,101014.38
2023-05-05T15:03:55.636Z,101020.41
2023-05-05T15:06:40.828Z,100996.97
2023-05-05T15:09:26.125Z,101016.06
2023-05-05T15:12:10.962Z,101024.81
2023-05-05T15:14:56.302Z,101026.50
2023-05-05T15:17:41.634Z,101034.09
2023-05-05T15:20:26.877Z,101033.53
2023-05-05T15:23:12.073Z,101050.50
2023-05-05T15:25:57.238Z,101047.22
2023-05-05T15:28:42.250Z,101051.13
2023-05-05T15:31:27.295Z,101055.84
2023-05-05T15:34:12.265Z,101062.72
2023-05-05T15:36:57.281Z,101039.56
2023-05-05T15:39:42.168Z,101042.78
2023-05-05T15:42:27.155Z,101021.88
2023-05-05T15:45:12.173Z,101015.34
2023-05-05T15:47:57.462Z,101001.19
2023-05-05T15:50:42.176Z,100992.34
2023-05-05T15:53:27.512Z,100990.75
2023-05-05T15:56:12.541Z,100986.31
2023-05-05T15:58:57.506Z,100989.41
2023-05-05T16:01:42.612Z,100986.00
2023-05-05T16:04:28.070Z,100981.16
2023-05-05T16:07:13.281Z,100978.78
2023-05-05T16:09:58.014Z,100969.47
2023-05-05T16:12:43.264Z,100977.63
2023-05-05T16:15:27.975Z,100972.59
2023-05-05T16:18:13.190Z,100975.78
2023-05-05T16:20:57.910Z,100998.69
2023-05-05T16:23:43.408Z,100997.19
2023-05-05T16:26:29.018Z,100985.88
2023-05-05T16:29:14.032Z,101000.03
2023-05-05T16:31:59.212Z,100995.03
2023-05-05T16:34:44.243Z,100995.53
2023-05-05T16:37:29.162Z,100991.16
2023-05-05T16:40:14.238Z,100981.09
2023-05-05T16:42:58.896Z,100982.75
2023-05-05T16:45:43.914Z,101003.13
2023-05-05T16:48:28.787Z,100993.19
2023-05-05T16:51:14.083Z,100989.78
2023-05-05T16:53:59.103Z,100983.28
2023-05-05T16:56:44.258Z,100992.53
2023-05-05T16:59:31.397Z,100998.88
2023-05-05T17:02:16.891Z,100995.22
2023-05-05T17:05:02.401Z,100991.75
2023-05-05T17:07:50.215Z,100976.53
2023-05-05T17:10:35.010Z,101000.84
2023-05-05T17:13:19.877Z,100985.91
2023-05-05T17:16:04.872Z,100980.03
2023-05-05T17:18:49.984Z,100998.44
2023-05-05T17:21:35.036Z,100988.53
2023-05-05T17:24:20.654Z,100998.69
2023-05-05T17:27:05.911Z,101001.84
2023-05-05T17:29:51.643Z,101010.34
2023-05-05T17:32:37.035Z,101012.34
2023-05-05T17:35:22.267Z,101017.53
2023-05-05T17:38:07.571Z,101026.28
2023-05-05T17:40:52.749Z,101047.09
2023-05-05T17:43:37.549Z,101048.16
2023-05-05T17:46:22.774Z,101046.13
2023-05-05T17:49:07.691Z,101029.44
2023-05-05T17:51:52.817Z,101029.19
2023-05-05T17:54:37.698Z,101050.19
2023-05-05T17:57:22.995Z,101048.00
2023-05-05T18:00:08.857Z,101046.69
2023-05-05T18:02:53.898Z,101059.56
2023-05-05T18:05:39.102Z,101060.00
2023-05-05T18:08:25.079Z,101083.94
2023-05-05T18:11:10.543Z,101093.91
2023-05-05T18:13:55.852Z,101096.47
2023-05-05T18:16:43.664Z,101101.03
2023-05-05T18:19:28.457Z,101126.75
2023-05-05T18:22:13.794Z,101118.66
2023-05-05T18:24:59.605Z,101130.81
2023-05-05T18:27:45.089Z,101129.19
2023-05-05T18:30:30.300Z,101145.25
2023-05-05T18:33:15.249Z,101143.34
2023-05-05T18:36:02.179Z,101153.13
2023-05-05T18:38:47.228Z,101162.94
2023-05-05T18:41:32.149Z,101159.38
2023-05-05T18:44:18.780Z,101157.91
2023-05-05T18:47:03.986Z,101152.13
2023-05-05T18:49:49.656Z,101158.81
2023-05-05T18:52:34.695Z,101169.22
2023-05-05T18:55:19.563Z,101162.97
2023-05-05T18:58:04.728Z,101162.66
2023-05-05T19:00:50.734Z,101154.66
2023-05-05T19:03:35.497Z,101150.59
2023-05-05T19:06:20.374Z,101150.94
2023-05-05T19:09:05.685Z,101149.69
2023-05-05T19:11:50.853Z,101149.66
2023-05-05T19:14:36.005Z,101164.16
2023-05-05T19:17:21.172Z,101170.78
2023-05-05T19:20:06.815Z,101167.19
2023-05-05T19:22:51.824Z,101170.19
2023-05-05T19:25:36.826Z,101173.59
2023-05-05T19:28:21.945Z,101182.22
2023-05-05T19:31:07.145Z,101188.06
2023-05-05T19:33:51.896Z,101187.94
2023-05-05T19:36:38.063Z,101194.25
2023-05-05T19:39:22.778Z,101193.25
2023-05-05T19:42:07.930Z,101189.09
2023-05-05T19:44:52.880Z,101196.59
2023-05-05T19:47:38.063Z,101189.78
2023-05-05T19:50:22.997Z,101195.13
2023-05-05T19:53:07.890Z,101192.28
2023-05-05T19:55:52.726Z,101191.13
2023-05-05T19:58:56.274Z,101200.09
2023-05-05T20:01:41.421Z,101196.78
2023-05-05T20:04:26.731Z,101198.78
2023-05-05T20:07:11.542Z,101200.78
2023-05-05T20:09:56.826Z,101194.47
2023-05-05T20:12:48.151Z,101197.63
2023-05-05T20:15:33.592Z,101194.31
2023-05-05T20:18:18.545Z,101196.47
2023-05-05T20:21:03.640Z,101201.75
2023-05-05T20:23:48.824Z,101196.44
2023-05-05T20:26:33.928Z,101202.59
2023-05-05T20:29:20.066Z,101201.41
2023-05-05T20:32:05.734Z,101199.22
2023-05-05T20:34:50.725Z,101201.75
2023-05-05T20:37:35.713Z,101191.75
2023-05-05T20:40:20.894Z,101189.59
2023-05-05T20:43:05.838Z,101200.56
2023-05-05T20:45:51.655Z,101199.50
2023-05-05T20:48:38.219Z,101206.72
2023-05-05T20:51:29.085Z,101205.31
2023-05-05T20:54:14.164Z,101210.31
2023-05-05T20:56:59.239Z,101200.31
2023-05-05T20:59:44.192Z,101194.59
2023-05-05T21:02:29.221Z,101189.28
2023-05-05T21:05:14.648Z,101190.78
2023-05-05T21:08:01.149Z,101198.25
2023-05-05T21:10:46.331Z,101192.75
2023-05-05T21:13:31.923Z,101205.16
2023-05-05T21:16:17.066Z,101205.50
2023-05-05T21:19:02.252Z,101201.09
2023-05-05T21:21:47.759Z,101203.91
2023-05-05T21:24:32.600Z,101204.28
2023-05-05T21:27:17.800Z,101207.25
2023-05-05T21:30:02.693Z,101206.66
2023-05-05T21:32:47.713Z,101209.28
2023-05-05T21:35:32.779Z,101210.53
2023-05-05T21:38:17.930Z,101201.72
2023-05-05T21:41:03.608Z,101204.75
2023-05-05T21:43:48.599Z,101200.94
2023-05-05T21:46:33.893Z,101206.63
2023-05-05T21:49:18.726Z,101203.97
2023-05-05T21:52:03.938Z,101197.00
2023-05-05T21:54:49.095Z,101191.97
2023-05-05T21:57:34.060Z,101195.47
2023-05-05T22:00:19.398Z,101188.31
2023-05-05T22:03:04.882Z,101188.00
2023-05-05T22:05:50.027Z,101196.13
2023-05-05T22:08:34.866Z,101193.66
2023-05-05T22:11:19.779Z,101195.31
2023-05-05T22:14:04.732Z,101186.84
2023-05-05T22:16:49.706Z,101189.63
2023-05-05T22:19:34.895Z,101188.75
2023-05-05T22:22:19.529Z,101187.28
2023-05-05T22:25:05.773Z,101187.59
2023-05-05T22:27:50.558Z,101189.50
2023-05-05T22:30:35.893Z,101199.31
2023-05-05T22:33:21.498Z,101193.78
2023-05-05T22:36:08.780Z,101197.09
2023-05-05T22:38:54.011Z,101189.28
2023-05-05T22:41:38.800Z,101188.63
2023-05-05T22:44:23.866Z,101192.44
2023-05-05T22:47:09.058Z,101193.63
2023-05-05T22:49:54.147Z,101200.88
2023-05-05T22:52:39.038Z,101199.91
2023-05-05T22:55:24.665Z,101193.97
2023-05-05T22:58:09.940Z,101188.66
2023-05-05T23:00:55.006Z,101185.00
2023-05-05T23:03:39.774Z,101176.97
2023-05-05T23:06:24.558Z,101175.69
2023-05-05T23:09:09.632Z,101182.19
2023-05-05T23:11:54.305Z,101177.03
2023-05-05T23:14:39.506Z,101181.34
2023-05-05T23:17:24.462Z,101178.03
2023-05-05T23:20:11.907Z,101184.84
2023-05-05T23:22:56.947Z,101184.50
2023-05-05T23:25:42.102Z,101184.03
2023-05-05T23:28:27.003Z,101178.19
2023-05-05T23:31:12.200Z,101178.69
2023-05-05T23:33:57.114Z,101177.19
2023-05-05T23:36:42.021Z,101178.69
2023-05-05T23:39:27.106Z,101177.84
2023-05-05T23:42:12.386Z,101179.81
2023-05-05T23:44:57.127Z,101172.00
2023-05-05T23:47:42.464Z,101179.16
2023-05-05T23:50:27.711Z,101183.44
2023-05-05T23:53:12.780Z,101183.72
2023-05-05T23:55:57.687Z,101177.22
2023-05-05T23:58:42.827Z,101175.41
